Time;durP1;ratioP1;P1;durP2;ratioP2;P2;SDS_P1;SDS_P2;PMS_P1;PMS_P2;Temp;Humidity;BMP_temperature;BMP_pressure;BME280_temperature;BME280_humidity;BME280_pressure;Samples;Min_cycle;Max_cycle;Signal;HPM_P1;HPM_P2
2023/06/12 00:01:16;;;;;;;8.30;6.65;;;;;20.40;98434.00;;;;5072527;28;20521;-59
2023/06/12 00:03:43;;;;;;;10.27;6.80;;;;;20.30;98433.00;;;;5072869;28;20041;-60
2023/06/12 00:06:11;;;;;;;7.07;6.38;;;;;20.30;98434.00;;;;5072313;28;20045;-59
2023/06/12 00:08:41;;;;;;;7.20;5.88;;;;;20.20;98430.00;;;;5073686;28;20092;-59
2023/06/12 00:11:12;;;;;;;6.78;5.88;;;;;20.20;98436.00;;;;5073800;28;20041;-59
2023/06/12 00:13:45;;;;;;;8.15;6.32;;;;;20.20;98442.00;;;;5057134;28;20059;-59
2023/06/12 00:16:12;;;;;;;9.38;6.07;;;;;20.10;98440.00;;;;5074106;28;20048;-59
2023/06/12 00:18:39;;;;;;;8.25;6.57;;;;;20.00;98445.00;;;;5056852;28;20056;-58
2023/06/12 00:21:08;;;;;;;7.28;6.50;;;;;20.00;98438.00;;;;5074258;28;20570;-60
2023/06/12 00:23:39;;;;;;;8.88;6.95;;;;;19.90;98442.00;;;;5077431;28;20104;-60
2023/06/12 00:26:06;;;;;;;9.25;7.13;;;;;19.90;98439.00;;;;5078864;28;20074;-59
2023/06/12 00:28:32;;;;;;;7.65;6.93;;;;;19.90;98441.00;;;;5077030;28;20061;-59
2023/06/12 00:30:59;;;;;;;9.23;6.57;;;;;19.80;98436.00;;;;5079076;28;20135;-59
2023/06/12 00:33:27;;;;;;;9.52;6.70;;;;;19.70;98438.00;;;;5083113;28;20102;-59
2023/06/12 00:35:53;;;;;;;8.13;6.85;;;;;19.70;98442.00;;;;5081391;28;20113;-57
2023/06/12 00:38:21;;;;;;;7.28;6.13;;;;;19.60;98435.00;;;;5079336;28;20064;-59
2023/06/12 00:40:49;;;;;;;7.68;6.75;;;;;19.50;98432.00;;;;5078845;28;20049;-60
2023/06/12 00:43:16;;;;;;;7.15;6.45;;;;;19.40;98442.00;;;;5077704;28;20127;-60
2023/06/12 00:45:44;;;;;;;7.50;6.75;;;;;19.30;98438.00;;;;5073609;28;20063;-58
2023/06/12 00:48:11;;;;;;;8.20;6.85;;;;;19.20;98440.00;;;;5075799;28;20516;-59
2023/06/12 00:50:39;;;;;;;10.40;6.88;;;;;19.20;98443.00;;;;5076517;28;20068;-59
2023/06/12 00:53:07;;;;;;;8.05;7.25;;;;;19.20;98441.00;;;;5076914;28;20463;-59
2023/06/12 00:55:34;;;;;;;7.75;6.95;;;;;19.30;98443.00;;;;5077336;28;20048;-60
2023/06/12 00:58:01;;;;;;;7.72;6.68;;;;;19.40;98448.00;;;;5078397;28;20051;-60
2023/06/12 01:00:29;;;;;;;7.47;6.78;;;;;19.50;98442.00;;;;5078917;28;20390;-59
2023/06/12 01:03:04;;;;;;;9.63;7.30;;;;;19.40;98436.00;;;;5077935;28;20052;-59
2023/06/12 01:05:37;;;;;;;7.75;6.72;;;;;19.20;98447.00;;;;5079300;28;20064;-59
2023/06/12 01:08:16;;;;;;;8.20;6.80;;;;;19.00;98433.00;;;;5077338;28;20050;-60
2023/06/12 01:10:56;;;;;;;7.65;6.72;;;;;19.00;98445.00;;;;5079246;28;20049;-59
2023/06/12 01:13:23;;;;;;;8.65;7.57;;;;;19.00;98438.00;;;;5063049;28;20131;-59
2023/06/12 01:15:50;;;;;;;7.90;7.10;;;;;19.00;98442.00;;;;5080790;28;20067;-58
2023/06/12 01:18:21;;;;;;;8.50;7.68;;;;;19.00;98435.00;;;;5081315;28;20045;-59
2023/06/12 01:20:50;;;;;;;8.30;7.50;;;;;19.00;98437.00;;;;5079647;28;20040;-60
2023/06/12 01:23:32;;;;;;;7.93;7.13;;;;;19.00;98435.00;;;;5077738;28;20060;-59
2023/06/12 01:26:25;;;;;;;7.43;6.50;;;;;19.00;98434.00;;;;5060473;28;20078;-60
2023/06/12 01:29:39;;;;;;;8.57;7.72;;;;;19.10;98437.00;;;;5078156;28;20033;-59
2023/06/12 01:32:12;;;;;;;7.53;6.72;;;;;19.00;98441.00;;;;5082061;28;20071;-60
2023/06/12 01:34:50;;;;;;;8.18;7.20;;;;;19.00;98438.00;;;;5080312;28;20505;-59
2023/06/12 01:37:20;;;;;;;8.05;7.18;;;;;18.80;98434.00;;;;5077484;28;20528;-59
2023/06/12 01:39:55;;;;;;;8.68;7.05;;;;;18.80;98434.00;;;;5077506;28;20055;-59
2023/06/12 01:42:24;;;;;;;7.97;7.15;;;;;18.70;98428.00;;;;5078435;28;20143;-59
2023/06/12 01:44:51;;;;;;;9.60;7.07;;;;;18.60;98437.00;;;;5078996;28;20074;-60
2023/06/12 01:47:22;;;;;;;7.97;7.18;;;;;18.60;98431.00;;;;5078803;28;20119;-59
2023/06/12 01:49:50;;;;;;;8.52;7.07;;;;;18.60;98434.00;;;;5078063;28;20048;-59
2023/06/12 01:52:18;;;;;;;9.52;7.57;;;;;18.60;98423.00;;;;5078157;28;20079;-59
2023/06/12 01:54:48;;;;;;;8.90;8.05;;;;;18.60;98433.00;;;;5076411;28;20140;-60
2023/06/12 01:57:21;;;;;;;8.07;6.80;;;;;18.60;98422.00;;;;5076322;28;20117;-59
2023/06/12 01:59:48;;;;;;;7.78;7.00;;;;;18.70;98426.00;;;;5075626;28;20143;-59
2023/06/12 02:02:16;;;;;;;7.90;7.00;;;;;18.60;98426.00;;;;5076291;28;20055;-59
2023/06/12 02:04:43;;;;;;;8.98;7.05;;;;;18.60;98428.00;;;;5060040;28;20079;-58
2023/06/12 02:07:10;;;;;;;9.73;7.50;;;;;18.50;98423.00;;;;5079308;28;20086;-58
2023/06/12 02:09:37;;;;;;;8.05;7.30;;;;;18.40;98427.00;;;;5077869;28;20049;-58
2023/06/12 02:12:04;;;;;;;9.48;7.35;;;;;18.40;98430.00;;;;5078213;28;20090;-59
2023/06/12 02:14:30;;;;;;;7.53;6.82;;;;;18.40;98427.00;;;;5076247;28;20052;-58
2023/06/12 02:16:57;;;;;;;7.78;6.95;;;;;18.30;98434.00;;;;5077695;28;20049;-60
2023/06/12 02:19:25;;;;;;;8.85;7.40;;;;;18.20;98432.00;;;;5076282;28;20505;-58
2023/06/12 02:21:53;;;;;;;7.30;6.53;;;;;18.20;98424.00;;;;5077446;28;20055;-58
2023/06/12 02:24:24;;;;;;;8.23;7.25;;;;;18.10;98428.00;;;;5078363;28;20114;-60
2023/06/12 02:26:51;;;;;;;7.85;7.05;;;;;18.10;98435.00;;;;5078009;28;20066;-59
2023/06/12 02:29:18;;;;;;;8.05;7.25;;;;;18.10;98441.00;;;;5075159;28;20135;-58
2023/06/12 02:31:50;;;;;;;10.18;7.75;;;;;18.10;98437.00;;;;5077366;28;20527;-60
2023/06/12 02:34:17;;;;;;;8.73;7.35;;;;;18.20;98444.00;;;;5076948;28;20044;-57
2023/06/12 02:36:46;;;;;;;8.05;7.20;;;;;18.20;98428.00;;;;5075436;28;20497;-59
2023/06/12 02:39:23;;;;;;;7.88;7.07;;;;;18.30;98436.00;;;;5073894;28;20047;-59
2023/06/12 02:41:50;;;;;;;8.55;7.63;;;;;18.30;98444.00;;;;5073506;28;20056;-59
2023/06/12 02:44:17;;;;;;;8.68;7.68;;;;;18.30;98441.00;;;;5074628;28;20202;-60
2023/06/12 02:46:56;;;;;;;11.18;7.75;;;;;18.30;98443.00;;;;5076436;28;20044;-60
2023/06/12 02:49:27;;;;;;;7.90;6.72;;;;;18.30;98444.00;;;;5075680;28;20545;-60
2023/06/12 02:51:56;;;;;;;8.25;7.40;;;;;18.10;98443.00;;;;5074372;28;20051;-57
2023/06/12 02:54:24;;;;;;;8.75;7.85;;;;;18.00;98440.00;;;;5077509;28;20044;-60
2023/06/12 02:56:52;;;;;;;9.48;7.70;;;;;18.00;98440.00;;;;5078196;28;20052;-60
2023/06/12 02:59:22;;;;;;;23.65;17.50;;;;;18.00;98440.00;;;;5077910;28;20036;-60
2023/06/12 03:01:53;;;;;;;11.07;9.88;;;;;18.00;98441.00;;;;5071913;28;20568;-59
2023/06/12 03:04:28;;;;;;;8.13;7.40;;;;;17.90;98439.00;;;;5072055;28;20074;-59
2023/06/12 03:06:56;;;;;;;10.38;7.45;;;;;17.80;98447.00;;;;5055366;28;20048;-60
2023/06/12 03:09:23;;;;;;;9.77;8.10;;;;;17.80;98444.00;;;;5071759;28;20489;-59
2023/06/12 03:11:51;;;;;;;8.77;7.25;;;;;17.90;98457.00;;;;5071668;28;20143;-60
2023/06/12 03:14:21;;;;;;;9.32;7.30;;;;;18.00;98457.00;;;;5071835;28;20076;-60
2023/06/12 03:16:49;;;;;;;9.30;8.20;;;;;18.00;98467.00;;;;5072782;28;20045;-60
2023/06/12 03:19:16;;;;;;;9.40;7.15;;;;;18.00;98471.00;;;;5071234;28;20409;-60
2023/06/12 03:21:44;;;;;;;8.45;7.30;;;;;18.10;98468.00;;;;5071712;28;20051;-60
2023/06/12 03:24:11;;;;;;;11.13;8.23;;;;;18.00;98469.00;;;;5072892;28;20040;-60
2023/06/12 03:26:38;;;;;;;9.48;7.55;;;;;18.00;98470.00;;;;5071582;28;20447;-60
2023/06/12 03:29:05;;;;;;;8.70;7.80;;;;;17.90;98472.00;;;;5070969;28;20040;-59
2023/06/12 03:31:33;;;;;;;8.50;7.60;;;;;17.90;98476.00;;;;5071464;28;20497;-60
2023/06/12 03:34:00;;;;;;;9.70;7.65;;;;;17.90;98475.00;;;;5072710;28;20036;-60
2023/06/12 03:36:33;;;;;;;8.75;7.70;;;;;17.80;98468.00;;;;5071189;28;20052;-59
2023/06/12 03:39:02;;;;;;;12.10;7.45;;;;;17.80;98481.00;;;;5054597;28;20131;-60
2023/06/12 03:41:31;;;;;;;8.40;7.43;;;;;17.90;98480.00;;;;5071301;28;20493;-60
2023/06/12 03:44:00;;;;;;;8.55;7.28;;;;;18.00;98476.00;;;;5071020;28;20050;-60
2023/06/12 03:46:30;;;;;;;9.45;8.45;;;;;18.00;98481.00;;;;5054472;28;20425;-59
2023/06/12 03:48:58;;;;;;;10.23;8.75;;;;;18.00;98477.00;;;;5072022;28;20037;-60
2023/06/12 03:51:25;;;;;;;9.18;7.78;;;;;18.00;98479.00;;;;5070928;28;20563;-60
2023/06/12 03:53:54;;;;;;;8.90;7.72;;;;;18.10;98481.00;;;;5071036;28;20079;-59
2023/06/12 03:56:21;;;;;;;10.07;8.82;;;;;18.10;98482.00;;;;5070606;28;20450;-59
2023/06/12 03:58:49;;;;;;;11.80;8.43;;;;;18.00;98481.00;;;;5072830;28;20084;-59
2023/06/12 04:01:17;;;;;;;9.82;8.35;;;;;17.90;98477.00;;;;5072771;28;20037;-59
2023/06/12 04:03:45;;;;;;;9.00;7.57;;;;;18.00;98481.00;;;;5072669;28;20040;-60
2023/06/12 04:06:14;;;;;;;8.68;7.75;;;;;18.10;98480.00;;;;5071049;28;20074;-59
2023/06/12 04:08:44;;;;;;;40.40;27.13;;;;;18.00;98491.00;;;;5071177;28;20048;-59
2023/06/12 04:11:13;;;;;;;11.85;9.10;;;;;17.90;98488.00;;;;5070809;28;20572;-59
2023/06/12 04:13:41;;;;;;;9.48;8.02;;;;;17.80;98502.00;;;;5073176;28;20037;-61
2023/06/12 04:16:08;;;;;;;9.27;7.75;;;;;17.80;98503.00;;;;5071668;28;20045;-62
2023/06/12 04:18:37;;;;;;;11.98;7.95;;;;;17.70;98502.00;;;;5073031;28;20508;-58
2023/06/12 04:21:05;;;;;;;11.43;8.40;;;;;17.70;98504.00;;;;5071725;28;20512;-59
2023/06/12 04:23:32;;;;;;;12.02;8.23;;;;;17.90;98503.00;;;;5072039;28;20090;-59
2023/06/12 04:26:06;;;;;;;8.88;7.97;;;;;17.80;98499.00;;;;5071683;28;20075;-60
2023/06/12 04:28:36;;;;;;;10.50;7.65;;;;;17.90;98501.00;;;;5071587;28;20517;-59
2023/06/12 04:31:03;;;;;;;9.00;7.45;;;;;18.00;98506.00;;;;5070848;28;20049;-59
2023/06/12 04:33:32;;;;;;;8.40;7.50;;;;;18.20;98508.00;;;;5071123;28;20453;-59
2023/06/12 04:36:01;;;;;;;10.60;8.07;;;;;18.40;98500.00;;;;5071009;28;20040;-59
2023/06/12 04:38:31;;;;;;;9.57;8.07;;;;;18.60;98502.00;;;;5070494;28;20063;-59
2023/06/12 04:40:58;;;;;;;9.25;7.82;;;;;18.70;98509.00;;;;5072602;28;20485;-60
2023/06/12 04:43:26;;;;;;;9.02;8.18;;;;;18.80;98501.00;;;;5072461;28;20390;-58
2023/06/12 04:45:53;;;;;;;10.65;8.10;;;;;18.80;98501.00;;;;5072488;28;20040;-59
2023/06/12 04:48:24;;;;;;;9.85;7.93;;;;;18.90;98505.00;;;;5072731;28;20397;-60
2023/06/12 04:50:53;;;;;;;14.05;8.68;;;;;19.00;98508.00;;;;5073102;28;20059;-61
2023/06/12 04:53:27;;;;;;;12.57;8.52;;;;;19.00;98500.00;;;;5071670;28;20052;-61
2023/06/12 04:55:56;;;;;;;9.88;8.75;;;;;19.10;98500.00;;;;5075304;28;20052;-58
2023/06/12 04:58:24;;;;;;;9.55;7.85;;;;;19.10;98499.00;;;;5074555;28;20048;-59
2023/06/12 05:00:55;;;;;;;9.13;8.23;;;;;19.10;98502.00;;;;5073220;28;20041;-59
2023/06/12 05:03:22;;;;;;;9.90;8.00;;;;;19.20;98504.00;;;;5071607;28;20048;-60
2023/06/12 05:05:54;;;;;;;12.25;9.90;;;;;19.40;98494.00;;;;5073954;28;20524;-62
2023/06/12 05:08:21;;;;;;;12.57;9.45;;;;;19.60;98490.00;;;;5075127;28;20421;-58
2023/06/12 05:10:47;;;;;;;9.40;8.40;;;;;19.80;98499.00;;;;5075333;28;20492;-58
2023/06/12 05:13:14;;;;;;;10.40;8.18;;;;;19.80;98509.00;;;;5076992;28;20056;-60
2023/06/12 05:15:41;;;;;;;10.43;8.63;;;;;19.70;98500.00;;;;5076009;28;20135;-60
2023/06/12 05:18:09;;;;;;;11.90;7.95;;;;;19.70;98500.00;;;;5074731;28;20162;-60
2023/06/12 05:20:36;;;;;;;13.48;8.82;;;;;19.80;98502.00;;;;5075516;28;20040;-60
2023/06/12 05:23:05;;;;;;;11.05;8.45;;;;;20.00;98506.00;;;;5074305;28;20055;-59
2023/06/12 05:25:32;;;;;;;10.23;8.77;;;;;20.10;98503.00;;;;5074252;28;20048;-60
2023/06/12 05:28:05;;;;;;;9.98;8.13;;;;;20.10;98497.00;;;;5074271;28;20052;-60
2023/06/12 05:30:33;;;;;;;11.48;7.70;;;;;20.30;98503.00;;;;5073902;28;20055;-59
2023/06/12 05:33:02;;;;;;;12.63;9.07;;;;;20.30;98511.00;;;;5075147;28;20044;-60
2023/06/12 05:35:30;;;;;;;9.73;7.80;;;;;20.40;98511.00;;;;5057584;28;20048;-59
2023/06/12 05:37:59;;;;;;;12.57;7.97;;;;;20.40;98507.00;;;;5058000;28;20139;-60
2023/06/12 05:40:27;;;;;;;12.23;9.50;;;;;20.40;98502.00;;;;5073657;28;20174;-60
2023/06/12 05:42:56;;;;;;;11.73;7.35;;;;;20.60;98502.00;;;;5073910;28;20051;-60
2023/06/12 05:45:22;;;;;;;10.98;7.88;;;;;20.70;98511.00;;;;5075154;28;20044;-58
2023/06/12 05:47:49;;;;;;;11.55;10.30;;;;;20.80;98514.00;;;;5073437;28;20075;-59
2023/06/12 05:50:17;;;;;;;10.80;9.35;;;;;21.00;98515.00;;;;5056950;28;20044;-58
2023/06/12 05:52:45;;;;;;;17.10;11.90;;;;;21.10;98514.00;;;;5073153;28;20044;-60
2023/06/12 05:55:11;;;;;;;8.80;7.38;;;;;21.20;98513.00;;;;5073780;28;20093;-60
2023/06/12 05:57:38;;;;;;;8.65;6.80;;;;;21.30;98509.00;;;;5073201;28;20436;-59
2023/06/12 06:00:06;;;;;;;9.23;7.20;;;;;21.40;98509.00;;;;5073184;28;20032;-60
2023/06/12 06:02:42;;;;;;;15.18;7.85;;;;;21.50;98514.00;;;;5073412;28;20516;-60
2023/06/12 06:05:17;;;;;;;9.45;6.88;;;;;21.50;98511.00;;;;5074619;28;20072;-59
2023/06/12 06:07:45;;;;;;;9.23;7.35;;;;;21.60;98519.00;;;;5073343;28;20060;-60
2023/06/12 06:10:11;;;;;;;10.73;7.18;;;;;21.70;98519.00;;;;5073182;28;20420;-60
2023/06/12 06:12:38;;;;;;;10.52;7.68;;;;;21.80;98518.00;;;;5073026;28;20041;-59
2023/06/12 06:15:05;;;;;;;7.97;7.00;;;;;21.80;98515.00;;;;5073066;28;20048;-59
2023/06/12 06:17:32;;;;;;;13.20;6.82;;;;;22.00;98522.00;;;;5072589;28;20208;-59
2023/06/12 06:20:00;;;;;;;9.65;6.70;;;;;22.20;98518.00;;;;5072925;28;20400;-60
2023/06/12 06:22:26;;;;;;;8.45;7.47;;;;;22.20;98524.00;;;;5073549;28;20041;-59
2023/06/12 06:24:54;;;;;;;9.88;6.00;;;;;22.30;98526.00;;;;5056427;28;20051;-59
2023/06/12 06:27:21;;;;;;;8.38;5.75;;;;;22.50;98520.00;;;;5072750;28;20505;-60
2023/06/12 06:29:47;;;;;;;9.00;6.07;;;;;22.50;98518.00;;;;5073801;28;20119;-59
2023/06/12 06:32:14;;;;;;;7.68;5.97;;;;;22.60;98530.00;;;;5072429;28;20078;-59
2023/06/12 06:34:41;;;;;;;7.68;6.30;;;;;22.70;98526.00;;;;5073727;28;20103;-59
2023/06/12 06:37:08;;;;;;;6.78;6.05;;;;;22.90;98536.00;;;;5073807;28;20044;-59
2023/06/12 06:39:35;;;;;;;6.75;5.47;;;;;22.90;98537.00;;;;5072159;28;20044;-58
2023/06/12 06:42:02;;;;;;;7.45;5.63;;;;;23.00;98527.00;;;;5073849;28;20098;-59
2023/06/12 06:44:40;;;;;;;5.97;5.38;;;;;23.00;98535.00;;;;5072486;28;20048;-59
2023/06/12 06:47:10;;;;;;;7.25;5.80;;;;;23.10;98540.00;;;;5071968;28;20094;-58
2023/06/12 06:49:38;;;;;;;7.40;6.15;;;;;23.30;98537.00;;;;5071752;28;20041;-60
2023/06/12 06:52:05;;;;;;;10.85;6.00;;;;;23.30;98543.00;;;;5071865;28;20048;-58
2023/06/12 06:54:32;;;;;;;6.78;5.53;;;;;23.40;98535.00;;;;5072202;28;20067;-60
2023/06/12 06:57:00;;;;;;;6.85;6.18;;;;;23.50;98536.00;;;;5072140;28;20063;-60
2023/06/12 06:59:26;;;;;;;7.80;6.07;;;;;23.60;98537.00;;;;5055231;28;20390;-59
2023/06/12 07:01:54;;;;;;;6.00;5.40;;;;;23.70;98539.00;;;;5071876;28;20056;-59
2023/06/12 07:04:21;;;;;;;6.65;5.80;;;;;23.80;98540.00;;;;5073342;28;20041;-59
2023/06/12 07:06:47;;;;;;;7.93;7.13;;;;;23.80;98531.00;;;;5073016;28;20685;-58
2023/06/12 07:09:14;;;;;;;9.70;6.22;;;;;23.80;98520.00;;;;5071615;28;20041;-60
2023/06/12 07:11:41;;;;;;;6.53;5.45;;;;;23.90;98522.00;;;;5071711;28;20084;-58
2023/06/12 07:14:07;;;;;;;7.00;6.20;;;;;24.00;98509.00;;;;5054978;28;20079;-59
2023/06/12 07:16:34;;;;;;;6.90;5.70;;;;;24.10;98521.00;;;;5071266;28;20044;-60
2023/06/12 07:19:01;;;;;;;6.10;5.35;;;;;24.20;98509.00;;;;5072171;28;20060;-59
2023/06/12 07:21:27;;;;;;;5.78;5.20;;;;;24.40;98512.00;;;;5072781;28;20047;-60
2023/06/12 07:23:54;;;;;;;6.45;5.13;;;;;24.50;98518.00;;;;5071322;28;20044;-59
2023/06/12 07:26:21;;;;;;;7.82;5.32;;;;;24.50;98516.00;;;;5071397;28;20048;-59
2023/06/12 07:29:00;;;;;;;5.68;5.18;;;;;24.50;98519.00;;;;5070497;28;20492;-60
2023/06/12 07:31:29;;;;;;;6.57;5.50;;;;;24.60;98518.00;;;;5071255;28;20064;-59
2023/06/12 07:33:56;;;;;;;6.38;5.57;;;;;24.50;98514.00;;;;5072592;28;20041;-59
2023/06/12 07:36:23;;;;;;;8.65;5.45;;;;;24.60;98519.00;;;;5070943;28;20044;-59
2023/06/12 07:38:50;;;;;;;5.72;5.13;;;;;24.60;98512.00;;;;5071171;28;20143;-60
2023/06/12 07:41:17;;;;;;;6.68;6.00;;;;;24.70;98517.00;;;;5071138;28;20049;-58
2023/06/12 07:43:44;;;;;;;5.72;5.18;;;;;24.70;98514.00;;;;5071116;28;20050;-60
2023/06/12 07:46:11;;;;;;;6.00;5.28;;;;;24.80;98523.00;;;;5071104;28;20052;-60
2023/06/12 07:48:37;;;;;;;6.78;5.03;;;;;24.90;98515.00;;;;5071155;28;20071;-60
2023/06/12 07:51:04;;;;;;;5.95;5.35;;;;;24.90;98518.00;;;;5071263;28;20055;-60
2023/06/12 07:53:31;;;;;;;5.60;5.10;;;;;25.00;98509.00;;;;5071431;28;20052;-59
2023/06/12 07:56:08;;;;;;;5.72;5.22;;;;;25.20;98517.00;;;;5071194;28;20072;-60
2023/06/12 07:58:37;;;;;;;8.25;5.35;;;;;25.20;98513.00;;;;5071400;28;20048;-60
2023/06/12 08:01:06;;;;;;;5.90;5.40;;;;;25.10;98514.00;;;;5071322;28;20503;-60
2023/06/12 08:03:39;;;;;;;7.38;5.25;;;;;25.30;98517.00;;;;5055335;28;20429;-61
2023/06/12 08:06:13;;;;;;;6.72;5.20;;;;;25.30;98508.00;;;;5071260;28;20098;-58
2023/06/12 08:08:46;;;;;;;5.55;5.03;;;;;25.40;98505.00;;;;5055116;28;20098;-61
2023/06/12 08:11:14;;;;;;;8.70;5.15;;;;;25.60;98509.00;;;;5071461;28;20532;-61
2023/06/12 08:13:44;;;;;;;5.88;5.38;;;;;25.70;98508.00;;;;5070721;28;20423;-61
2023/06/12 08:16:12;;;;;;;6.85;5.63;;;;;25.90;98506.00;;;;5070681;28;20045;-60
2023/06/12 08:18:40;;;;;;;5.65;5.15;;;;;26.00;98508.00;;;;5070891;28;20054;-61
2023/06/12 08:21:07;;;;;;;8.57;4.95;;;;;25.90;98503.00;;;;5054252;28;20092;-61
2023/06/12 08:23:35;;;;;;;6.10;5.28;;;;;26.00;98508.00;;;;5071913;28;20546;-63
2023/06/12 08:26:04;;;;;;;5.13;4.72;;;;;26.00;98508.00;;;;5054976;28;20503;-61
2023/06/12 08:28:37;;;;;;;5.68;4.82;;;;;26.00;98513.00;;;;5054286;28;20045;-61
2023/06/12 08:31:08;;;;;;;5.60;5.10;;;;;26.00;98509.00;;;;5070376;28;20559;-62
2023/06/12 08:33:35;;;;;;;5.80;5.20;;;;;26.00;98503.00;;;;5071072;28;20089;-61
2023/06/12 08:36:01;;;;;;;7.85;5.55;;;;;26.00;98503.00;;;;5072661;28;20576;-62
2023/06/12 08:38:28;;;;;;;7.82;5.25;;;;;26.00;98502.00;;;;5072037;28;20044;-62
2023/06/12 08:41:01;;;;;;;8.43;5.32;;;;;26.00;98505.00;;;;5073903;28;20051;-61
2023/06/12 08:43:30;;;;;;;7.53;5.72;;;;;26.00;98508.00;;;;5076609;28;20041;-62
2023/06/12 08:46:07;;;;;;;5.70;5.20;;;;;26.00;98502.00;;;;5075690;28;20048;-63
2023/06/12 08:48:34;;;;;;;8.02;5.95;;;;;26.10;98505.00;;;;5076895;28;20040;-61
2023/06/12 08:51:02;;;;;;;6.20;5.60;;;;;26.20;98500.00;;;;5077054;28;20102;-61
2023/06/12 08:53:30;;;;;;;7.68;5.60;;;;;26.10;98497.00;;;;5076690;28;20088;-63
2023/06/12 08:55:57;;;;;;;6.60;5.93;;;;;26.10;98506.00;;;;5075343;28;20048;-62
2023/06/12 08:58:24;;;;;;;6.93;5.68;;;;;26.20;98498.00;;;;5076515;28;20047;-62
2023/06/12 09:00:50;;;;;;;7.85;5.53;;;;;26.10;98499.00;;;;5075962;28;20553;-62
2023/06/12 09:03:19;;;;;;;7.72;5.63;;;;;26.20;98494.00;;;;5074648;28;20468;-61
2023/06/12 09:05:47;;;;;;;5.63;5.13;;;;;26.10;98490.00;;;;5075938;28;20041;-62
2023/06/12 09:08:13;;;;;;;9.90;5.68;;;;;26.30;98491.00;;;;5076228;28;20078;-62
2023/06/12 09:10:40;;;;;;;6.07;5.57;;;;;26.30;98492.00;;;;5084474;28;20083;-62
2023/06/12 09:13:12;;;;;;;8.35;5.85;;;;;26.40;98493.00;;;;5087740;28;20073;-62
2023/06/12 09:15:49;;;;;;;5.63;5.13;;;;;26.50;98504.00;;;;5063910;28;20079;-62
2023/06/12 09:18:18;;;;;;;5.03;4.57;;;;;26.60;98493.00;;;;5076615;28;20069;-60
2023/06/12 09:20:49;;;;;;;5.97;5.03;;;;;26.80;98494.00;;;;5076008;28;20036;-62
2023/06/12 09:23:16;;;;;;;7.25;5.50;;;;;26.80;98494.00;;;;5074517;28;20049;-61
2023/06/12 09:25:46;;;;;;;5.68;5.18;;;;;26.70;98492.00;;;;5074289;28;20053;-62
2023/06/12 09:28:36;;;;;;;5.07;4.50;;;;;27.00;98494.00;;;;5074812;28;20055;-61
2023/06/12 09:31:04;;;;;;;5.70;5.15;;;;;27.10;98493.00;;;;5075440;28;20126;-62
2023/06/12 09:33:32;;;;;;;5.63;4.85;;;;;27.20;98497.00;;;;5074950;28;20113;-62
2023/06/12 09:35:59;;;;;;;5.93;4.82;;;;;27.30;98496.00;;;;5074284;28;20051;-62
2023/06/12 09:38:30;;;;;;;5.03;4.53;;;;;27.30;98499.00;;;;5073245;28;20128;-62
2023/06/12 09:40:58;;;;;;;5.53;5.00;;;;;27.40;98490.00;;;;5073679;28;20059;-62
2023/06/12 09:43:28;;;;;;;7.85;5.20;;;;;27.60;98503.00;;;;5074212;28;20555;-62
2023/06/12 09:45:55;;;;;;;6.78;5.40;;;;;27.80;98493.00;;;;5072864;28;20048;-61
2023/06/12 09:48:22;;;;;;;5.75;4.78;;;;;27.90;98491.00;;;;5073849;28;20072;-62
2023/06/12 09:50:48;;;;;;;5.20;4.70;;;;;27.80;98495.00;;;;5073027;28;20041;-62
2023/06/12 09:53:21;;;;;;;7.60;4.65;;;;;27.80;98488.00;;;;5073385;28;20059;-61
2023/06/12 09:55:49;;;;;;;6.30;4.43;;;;;27.80;98486.00;;;;5072300;28;20040;-62
2023/06/12 09:58:18;;;;;;;5.10;4.70;;;;;28.00;98487.00;;;;5073448;28;20075;-61
2023/06/12 10:00:46;;;;;;;7.22;4.53;;;;;28.10;98488.00;;;;5071813;28;20071;-61
2023/06/12 10:03:15;;;;;;;8.70;5.25;;;;;28.10;98488.00;;;;5072182;28;20135;-60
2023/06/12 10:05:50;;;;;;;5.57;4.60;;;;;28.10;98485.00;;;;5073352;28;20041;-61
2023/06/12 10:08:18;;;;;;;5.72;4.88;;;;;28.00;98492.00;;;;5073123;28;20055;-61
2023/06/12 10:10:45;;;;;;;6.57;5.88;;;;;28.10;98481.00;;;;5073028;28;20037;-61
2023/06/12 10:13:13;;;;;;;8.13;5.45;;;;;28.30;98491.00;;;;5071787;28;20573;-62
2023/06/12 10:15:40;;;;;;;5.93;5.32;;;;;28.50;98474.00;;;;5055314;28;20052;-61
2023/06/12 10:18:10;;;;;;;7.63;5.53;;;;;28.60;98484.00;;;;5072925;28;20552;-62
2023/06/12 10:20:37;;;;;;;5.50;4.97;;;;;28.80;98489.00;;;;5071629;28;20072;-62
2023/06/12 10:23:05;;;;;;;7.40;5.45;;;;;28.90;98478.00;;;;5072899;28;20063;-62
2023/06/12 10:25:33;;;;;;;5.75;5.25;;;;;29.00;98473.00;;;;5071737;28;20456;-62
2023/06/12 10:28:00;;;;;;;5.38;4.88;;;;;29.20;98473.00;;;;5073031;28;20048;-62
2023/06/12 10:30:27;;;;;;;5.65;5.10;;;;;29.50;98467.00;;;;5072825;28;20066;-62
2023/06/12 10:32:54;;;;;;;7.00;5.25;;;;;29.60;98475.00;;;;5020672;28;1088851;-62
2023/06/12 10:35:30;;;;;;;5.82;5.28;;;;;29.90;98475.00;;;;5072754;28;20571;-61
2023/06/12 10:37:56;;;;;;;7.45;5.43;;;;;29.80;98473.00;;;;5073712;28;20051;-62
2023/06/12 10:40:23;;;;;;;6.30;5.40;;;;;29.60;98468.00;;;;5072079;28;20053;-61
2023/06/12 10:43:11;;;;;;;7.72;5.20;;;;;29.60;98478.00;;;;5073784;28;20504;-61
2023/06/12 10:45:38;;;;;;;7.03;5.28;;;;;29.30;98467.00;;;;5073603;28;20083;-61
2023/06/12 10:48:05;;;;;;;6.88;5.45;;;;;29.20;98468.00;;;;5055604;28;20094;-61
2023/06/12 10:50:34;;;;;;;7.40;5.93;;;;;29.00;98460.00;;;;5073251;28;20516;-61
2023/06/12 10:53:06;;;;;;;8.02;5.97;;;;;29.00;98452.00;;;;5055493;28;20048;-60
2023/06/12 10:55:34;;;;;;;8.18;5.93;;;;;29.10;98461.00;;;;5055578;28;20063;-61
2023/06/12 10:58:14;;;;;;;7.07;5.70;;;;;29.10;98464.00;;;;5073163;28;20048;-61
2023/06/12 11:00:46;;;;;;;6.93;6.22;;;;;29.00;98464.00;;;;5071782;28;20055;-62
2023/06/12 11:03:21;;;;;;;7.13;5.80;;;;;28.60;98463.00;;;;5072483;28;20037;-61
2023/06/12 11:05:58;;;;;;;8.77;5.50;;;;;28.40;98451.00;;;;5073570;28;20448;-62
2023/06/12 11:08:32;;;;;;;7.20;5.50;;;;;28.50;98440.00;;;;5072217;28;20076;-62
2023/06/12 11:11:05;;;;;;;8.65;5.97;;;;;28.70;98453.00;;;;5055641;28;20047;-63
2023/06/12 11:13:32;;;;;;;6.30;5.72;;;;;28.70;98450.00;;;;5073546;28;20068;-62
2023/06/12 11:15:59;;;;;;;7.03;5.53;;;;;28.80;98437.00;;;;5072931;28;20068;-62
2023/06/12 11:18:26;;;;;;;7.38;6.38;;;;;29.10;98437.00;;;;5072811;28;20551;-62
2023/06/12 11:20:54;;;;;;;7.68;5.78;;;;;29.30;98428.00;;;;5071772;28;20058;-63
2023/06/12 11:23:22;;;;;;;6.53;5.57;;;;;29.40;98425.00;;;;5072529;28;20051;-62
2023/06/12 11:25:52;;;;;;;10.15;5.03;;;;;29.70;98429.00;;;;5071312;28;20044;-62
2023/06/12 11:28:25;;;;;;;6.03;5.38;;;;;29.80;98430.00;;;;5072919;28;20047;-61
2023/06/12 11:30:55;;;;;;;6.65;5.70;;;;;29.80;98438.00;;;;5071618;28;20041;-63
2023/06/12 11:33:25;;;;;;;7.03;6.15;;;;;29.90;98423.00;;;;5072680;28;20135;-63
2023/06/12 11:35:57;;;;;;;9.20;6.35;;;;;30.00;98435.00;;;;5072371;28;20309;-63
2023/06/12 11:38:24;;;;;;;6.88;6.13;;;;;29.90;98427.00;;;;5071660;28;20094;-64
2023/06/12 11:40:53;;;;;;;9.82;5.82;;;;;29.80;98428.00;;;;5072201;28;20474;-63
2023/06/12 11:43:23;;;;;;;6.38;5.78;;;;;29.70;98438.00;;;;5072587;28;20439;-63
2023/06/12 11:45:52;;;;;;;6.70;6.10;;;;;29.40;98433.00;;;;5072395;28;20041;-64
2023/06/12 11:48:19;;;;;;;6.68;5.57;;;;;29.10;98440.00;;;;5071217;28;20048;-64
2023/06/12 11:50:51;;;;;;;7.55;5.65;;;;;28.80;98440.00;;;;5072431;28;20104;-64
2023/06/12 11:53:20;;;;;;;6.38;5.78;;;;;28.60;98433.00;;;;5071601;28;20520;-64
2023/06/12 11:55:58;;;;;;;10.93;6.10;;;;;28.80;98421.00;;;;5072657;28;20416;-63
2023/06/12 11:58:35;;;;;;;6.35;5.47;;;;;28.70;98423.00;;;;5072589;28;20090;-63
2023/06/12 12:01:21;;;;;;;6.65;5.93;;;;;28.70;98415.00;;;;5070976;28;20098;-64
2023/06/12 12:03:48;;;;;;;7.18;5.72;;;;;28.80;98412.00;;;;5072343;28;20072;-64
2023/06/12 12:06:18;;;;;;;7.70;5.50;;;;;28.90;98419.00;;;;5072330;28;20044;-63
2023/06/12 12:08:54;;;;;;;6.05;5.45;;;;;29.00;98409.00;;;;5072560;28;20072;-64
2023/06/12 12:11:22;;;;;;;6.40;5.70;;;;;29.00;98409.00;;;;5071199;28;20387;-63
2023/06/12 12:13:50;;;;;;;5.88;5.38;;;;;29.30;98409.00;;;;5072144;28;20041;-64
2023/06/12 12:16:21;;;;;;;6.15;5.65;;;;;29.40;98416.00;;;;5072121;28;20040;-63
2023/06/12 12:18:48;;;;;;;6.65;5.95;;;;;29.40;98407.00;;;;5070877;28;20052;-63
2023/06/12 12:21:16;;;;;;;5.72;4.85;;;;;29.50;98410.00;;;;5071948;28;20036;-63
2023/06/12 12:23:43;;;;;;;6.63;5.72;;;;;29.60;98410.00;;;;5072347;28;20037;-64
2023/06/12 12:26:13;;;;;;;7.65;6.25;;;;;29.60;98398.00;;;;5072230;28;20044;-63